St Louis Regional Airport Alton,St Louis US
ICAO: KALN
IATA: ALN
Category: Medium
Scheduled Services: No

Elevation: 544 ft
TransAlt. 18000 ft.

Airport Communications:
APP/DEP:124.2
ATIS:128
AWOS 3:128
CLNC DEL:120.2
CTAF:126
GND:120.2
RDO:122.05
REGIONAL TWR:126
UNICOM:122.95

KALN Zoom In..

Runways:

(A) RW 11 length 8099 ft width 150 ft
---- / hdg 114

(B) RW 17 length 6500 ft width 100 ft
---- / hdg 174

(C) RW 29 length 8099 ft width 150 ft
ILS 108.50 / hdg 294

(D) RW 35 length 6500 ft width 100 ft
---- / hdg 354

Location; KALN
Day. 17 / Time. 07.15 Zulu
* Altimeter: 30.01
* Temperature: 23° c. 73.4°f.
* Wind from: 000° Speed 00 kn.
Dewpoint: 23° c.
Visibility: 10 Statute Miles.
Clouds: Clear (automated report).

KALN 170715Z AUTO 00000KT 10SM CLR 23/23 A3001 RMK AO2 T02320230


Wind - Calm.

 
 
jpsmedia.com for Web Design worldairports.se 2018   terms of use